Avon, Montana
Current Conditions -  °F | °C
As of 4:53 AM on Wednesday 28 Jan 2015 (Local Time) from KHLN Reporting Station
Clear Clear  
Wind Chill:   Ceiling: Unl
Heat Index:   Visibility: 10mi
Dew Point: -2°   Wind: 6mph
Humidity: 73%   Direction: 190°S
Pressure: 30.07"   Gusts: NA
Location:  46.59°N, 112.61°W
Report Text: KHLN 281153Z AUTO 19005KT 10SM CLR 03/M02 A3007 RMK AO2 SLP211 T00281017 10078 20006 53018
Loading
Personal Weather Stations






























Interactive Weather Map New forecast layout! Learn more

10-Day Weather Forecast

Advertisements
Track Severe Weather on mobile